sensor_id;sensor_type;location;lat;lon;timestamp;temperature;humidity
52869;DHT22;39100;53.480;6.158;2023-02-03T00:00:19;7.20;99.90
52869;DHT22;39100;53.480;6.158;2023-02-03T00:02:44;7.20;99.90
52869;DHT22;39100;53.480;6.158;2023-02-03T00:05:10;7.20;99.90
52869;DHT22;39100;53.480;6.158;2023-02-03T00:07:36;7.20;99.90
52869;DHT22;39100;53.480;6.158;2023-02-03T00:10:03;7.20;99.90
52869;DHT22;39100;53.480;6.158;2023-02-03T00:12:29;7.10;99.90
52869;DHT22;39100;53.480;6.158;2023-02-03T00:14:54;7.10;99.90
52869;DHT22;39100;53.480;6.158;2023-02-03T00:17:20;7.10;99.90
52869;DHT22;39100;53.480;6.158;2023-02-03T00:19:45;7.10;99.90
52869;DHT22;39100;53.480;6.158;2023-02-03T00:22:11;7.10;99.90
52869;DHT22;39100;53.480;6.158;2023-02-03T00:24:37;7.10;99.90
52869;DHT22;39100;53.480;6.158;2023-02-03T00:27:03;7.20;99.90
52869;DHT22;39100;53.480;6.158;2023-02-03T00:29:29;7.20;99.90
52869;DHT22;39100;53.480;6.158;2023-02-03T00:31:54;7.20;99.90
52869;DHT22;39100;53.480;6.158;2023-02-03T00:34:20;7.30;99.90
52869;DHT22;39100;53.480;6.158;2023-02-03T00:36:46;7.30;99.90
52869;DHT22;39100;53.480;6.158;2023-02-03T00:39:16;7.30;99.90
52869;DHT22;39100;53.480;6.158;2023-02-03T00:41:41;7.40;99.90
52869;DHT22;39100;53.480;6.158;2023-02-03T00:44:07;7.40;99.90
52869;DHT22;39100;53.480;6.158;2023-02-03T00:46:33;7.40;99.90
52869;DHT22;39100;53.480;6.158;2023-02-03T00:49:01;7.30;99.90
52869;DHT22;39100;53.480;6.158;2023-02-03T00:51:26;7.30;99.90
52869;DHT22;39100;53.480;6.158;2023-02-03T00:53:52;7.30;99.90
52869;DHT22;39100;53.480;6.158;2023-02-03T00:56:17;7.30;99.90
52869;DHT22;39100;53.480;6.158;2023-02-03T00:58:43;7.30;99.90
52869;DHT22;39100;53.480;6.158;2023-02-03T01:01:09;7.30;99.90
52869;DHT22;39100;53.480;6.158;2023-02-03T01:03:34;7.30;99.90
52869;DHT22;39100;53.480;6.158;2023-02-03T01:06:12;7.30;99.90
52869;DHT22;39100;53.480;6.158;2023-02-03T01:08:38;7.30;99.90
52869;DHT22;39100;53.480;6.158;2023-02-03T01:11:25;7.30;99.90
52869;DHT22;39100;53.480;6.158;2023-02-03T01:13:55;7.30;99.90
52869;DHT22;39100;53.480;6.158;2023-02-03T01:16:22;7.30;99.90
52869;DHT22;39100;53.480;6.158;2023-02-03T01:18:48;7.30;99.90
52869;DHT22;39100;53.480;6.158;2023-02-03T01:21:20;7.20;99.90
52869;DHT22;39100;53.480;6.158;2023-02-03T01:23:46;7.20;99.90
52869;DHT22;39100;53.480;6.158;2023-02-03T01:26:14;7.20;99.90
52869;DHT22;39100;53.480;6.158;2023-02-03T01:28:40;7.20;99.90
52869;DHT22;39100;53.480;6.158;2023-02-03T01:31:16;7.20;99.90
52869;DHT22;39100;53.480;6.158;2023-02-03T01:33:42;7.20;99.90
52869;DHT22;39100;53.480;6.158;2023-02-03T01:36:11;7.20;99.90
52869;DHT22;39100;53.480;6.158;2023-02-03T01:38:37;7.20;99.90
52869;DHT22;39100;53.480;6.158;2023-02-03T01:41:05;7.20;99.90
52869;DHT22;39100;53.480;6.158;2023-02-03T01:43:39;7.20;99.90
52869;DHT22;39100;53.480;6.158;2023-02-03T01:46:31;7.20;99.90
52869;DHT22;39100;53.480;6.158;2023-02-03T01:49:13;7.20;99.90
52869;DHT22;39100;53.480;6.158;2023-02-03T01:51:42;7.20;99.90
52869;DHT22;39100;53.480;6.158;2023-02-03T01:54:12;7.20;99.90
52869;DHT22;39100;53.480;6.158;2023-02-03T01:56:42;7.20;99.90
52869;DHT22;39100;53.480;6.158;2023-02-03T01:59:09;7.20;99.90
52869;DHT22;39100;53.480;6.158;2023-02-03T02:01:34;7.20;99.90
52869;DHT22;39100;53.480;6.158;2023-02-03T02:04:02;7.20;99.90
52869;DHT22;39100;53.480;6.158;2023-02-03T02:06:29;7.20;99.90
52869;DHT22;39100;53.480;6.158;2023-02-03T02:08:56;7.20;99.90
52869;DHT22;39100;53.480;6.158;2023-02-03T02:11:25;7.10;99.90
52869;DHT22;39100;53.480;6.158;2023-02-03T02:13:53;7.20;99.90
52869;DHT22;39100;53.480;6.158;2023-02-03T02:16:36;7.10;99.90
52869;DHT22;39100;53.480;6.158;2023-02-03T02:19:27;7.20;99.90
52869;DHT22;39100;53.480;6.158;2023-02-03T02:22:09;7.20;99.90
52869;DHT22;39100;53.480;6.158;2023-02-03T02:27:32;7.20;99.90
52869;DHT22;39100;53.480;6.158;2023-02-03T02:30:38;7.30;99.90
52869;DHT22;39100;53.480;6.158;2023-02-03T02:36:25;7.30;99.90
52869;DHT22;39100;53.480;6.158;2023-02-03T02:42:17;7.30;99.90
52869;DHT22;39100;53.480;6.158;2023-02-03T02:44:52;7.20;99.90
52869;DHT22;39100;53.480;6.158;2023-02-03T02:47:22;7.30;99.90
52869;DHT22;39100;53.480;6.158;2023-02-03T02:50:12;7.20;99.90
52869;DHT22;39100;53.480;6.158;2023-02-03T02:52:40;7.30;99.90
52869;DHT22;39100;53.480;6.158;2023-02-03T02:55:10;7.30;99.90
52869;DHT22;39100;53.480;6.158;2023-02-03T02:57:38;7.30;99.90
52869;DHT22;39100;53.480;6.158;2023-02-03T03:00:05;7.30;99.90
52869;DHT22;39100;53.480;6.158;2023-02-03T03:02:33;7.40;99.90
52869;DHT22;39100;53.480;6.158;2023-02-03T03:05:01;7.40;99.90
52869;DHT22;39100;53.480;6.158;2023-02-03T03:07:30;7.40;99.90
52869;DHT22;39100;53.480;6.158;2023-02-03T03:10:01;7.40;99.90
52869;DHT22;39100;53.480;6.158;2023-02-03T03:12:34;7.50;99.90
52869;DHT22;39100;53.480;6.158;2023-02-03T03:15:03;7.50;99.90
52869;DHT22;39100;53.480;6.158;2023-02-03T03:17:39;7.50;99.90
52869;DHT22;39100;53.480;6.158;2023-02-03T03:20:10;7.50;99.90
52869;DHT22;39100;53.480;6.158;2023-02-03T03:22:44;7.50;99.90
52869;DHT22;39100;53.480;6.158;2023-02-03T03:25:16;7.50;99.90
52869;DHT22;39100;53.480;6.158;2023-02-03T03:27:47;7.60;99.90
52869;DHT22;39100;53.480;6.158;2023-02-03T03:30:17;7.60;99.90
52869;DHT22;39100;53.480;6.158;2023-02-03T03:32:45;7.60;99.90
52869;DHT22;39100;53.480;6.158;2023-02-03T03:35:10;7.60;99.90
52869;DHT22;39100;53.480;6.158;2023-02-03T03:37:55;7.60;99.90
52869;DHT22;39100;53.480;6.158;2023-02-03T03:40:32;7.50;99.90
52869;DHT22;39100;53.480;6.158;2023-02-03T03:43:07;7.60;99.90
52869;DHT22;39100;53.480;6.158;2023-02-03T03:46:25;7.50;99.90
52869;DHT22;39100;53.480;6.158;2023-02-03T03:48:27;7.50;99.90
52869;DHT22;39100;53.480;6.158;2023-02-03T03:51:01;7.40;99.90
52869;DHT22;39100;53.480;6.158;2023-02-03T03:53:29;7.40;99.90
52869;DHT22;39100;53.480;6.158;2023-02-03T03:55:58;7.40;99.90
52869;DHT22;39100;53.480;6.158;2023-02-03T03:58:28;7.40;99.90
52869;DHT22;39100;53.480;6.158;2023-02-03T04:00:57;7.40;99.90
52869;DHT22;39100;53.480;6.158;2023-02-03T04:03:29;7.50;99.90
52869;DHT22;39100;53.480;6.158;2023-02-03T04:05:55;7.50;99.90
52869;DHT22;39100;53.480;6.158;2023-02-03T04:08:21;7.50;99.90
52869;DHT22;39100;53.480;6.158;2023-02-03T04:10:46;7.50;99.90
52869;DHT22;39100;53.480;6.158;2023-02-03T04:13:12;7.50;99.90
52869;DHT22;39100;53.480;6.158;2023-02-03T04:15:40;7.50;99.90
52869;DHT22;39100;53.480;6.158;2023-02-03T04:18:06;7.50;99.90
52869;DHT22;39100;53.480;6.158;2023-02-03T04:20:32;7.50;99.90
52869;DHT22;39100;53.480;6.158;2023-02-03T04:22:58;7.40;99.90
52869;DHT22;39100;53.480;6.158;2023-02-03T04:25:24;7.40;99.90
52869;DHT22;39100;53.480;6.158;2023-02-03T04:27:50;7.50;99.90
52869;DHT22;39100;53.480;6.158;2023-02-03T04:30:16;7.50;99.90
52869;DHT22;39100;53.480;6.158;2023-02-03T04:32:46;7.50;99.90
52869;DHT22;39100;53.480;6.158;2023-02-03T04:35:12;7.50;99.90
52869;DHT22;39100;53.480;6.158;2023-02-03T04:37:37;7.60;99.90
52869;DHT22;39100;53.480;6.158;2023-02-03T04:40:03;7.50;99.90
52869;DHT22;39100;53.480;6.158;2023-02-03T04:42:29;7.60;99.90
52869;DHT22;39100;53.480;6.158;2023-02-03T04:44:55;7.60;99.90
52869;DHT22;39100;53.480;6.158;2023-02-03T04:47:20;7.60;99.90
52869;DHT22;39100;53.480;6.158;2023-02-03T04:49:46;7.60;99.90
52869;DHT22;39100;53.480;6.158;2023-02-03T04:52:12;7.60;99.90
52869;DHT22;39100;53.480;6.158;2023-02-03T04:54:37;7.60;99.90
52869;DHT22;39100;53.480;6.158;2023-02-03T04:57:03;7.60;99.90
52869;DHT22;39100;53.480;6.158;2023-02-03T04:59:29;7.60;99.90
52869;DHT22;39100;53.480;6.158;2023-02-03T05:01:54;7.60;99.90
52869;DHT22;39100;53.480;6.158;2023-02-03T05:04:20;7.60;99.90
52869;DHT22;39100;53.480;6.158;2023-02-03T05:06:46;7.60;99.90
52869;DHT22;39100;53.480;6.158;2023-02-03T05:09:11;7.60;99.90
52869;DHT22;39100;53.480;6.158;2023-02-03T05:11:37;7.80;99.90
52869;DHT22;39100;53.480;6.158;2023-02-03T05:14:03;7.90;99.90
52869;DHT22;39100;53.480;6.158;2023-02-03T05:16:28;7.90;99.90
52869;DHT22;39100;53.480;6.158;2023-02-03T05:18:54;8.00;99.90
52869;DHT22;39100;53.480;6.158;2023-02-03T05:21:20;8.20;99.90
52869;DHT22;39100;53.480;6.158;2023-02-03T05:23:46;8.10;99.90
52869;DHT22;39100;53.480;6.158;2023-02-03T05:26:11;8.10;99.90
52869;DHT22;39100;53.480;6.158;2023-02-03T05:28:37;8.10;99.90
52869;DHT22;39100;53.480;6.158;2023-02-03T05:31:03;8.10;99.90
52869;DHT22;39100;53.480;6.158;2023-02-03T05:33:29;8.10;99.90
52869;DHT22;39100;53.480;6.158;2023-02-03T05:35:55;8.10;99.90
52869;DHT22;39100;53.480;6.158;2023-02-03T05:38:21;8.10;99.90
52869;DHT22;39100;53.480;6.158;2023-02-03T05:40:48;8.20;99.90
52869;DHT22;39100;53.480;6.158;2023-02-03T05:43:33;8.20;99.90
52869;DHT22;39100;53.480;6.158;2023-02-03T05:46:00;8.20;99.90
52869;DHT22;39100;53.480;6.158;2023-02-03T05:48:26;8.10;99.90
52869;DHT22;39100;53.480;6.158;2023-02-03T05:50:51;8.10;99.90
52869;DHT22;39100;53.480;6.158;2023-02-03T05:53:17;8.10;99.90
52869;DHT22;39100;53.480;6.158;2023-02-03T05:55:42;8.00;99.90
52869;DHT22;39100;53.480;6.158;2023-02-03T05:58:08;8.00;99.90
52869;DHT22;39100;53.480;6.158;2023-02-03T06:00:33;8.00;99.90
52869;DHT22;39100;53.480;6.158;2023-02-03T06:03:00;8.10;99.90
52869;DHT22;39100;53.480;6.158;2023-02-03T06:05:30;8.00;99.90
52869;DHT22;39100;53.480;6.158;2023-02-03T06:07:57;8.10;99.90
52869;DHT22;39100;53.480;6.158;2023-02-03T06:10:22;8.10;99.90
52869;DHT22;39100;53.480;6.158;2023-02-03T06:12:48;8.10;99.90
52869;DHT22;39100;53.480;6.158;2023-02-03T06:15:14;8.10;99.90
52869;DHT22;39100;53.480;6.158;2023-02-03T06:17:43;8.10;99.90
52869;DHT22;39100;53.480;6.158;2023-02-03T06:20:11;8.10;99.90
52869;DHT22;39100;53.480;6.158;2023-02-03T06:22:37;8.10;99.90
52869;DHT22;39100;53.480;6.158;2023-02-03T06:25:03;8.10;99.90
52869;DHT22;39100;53.480;6.158;2023-02-03T06:27:28;8.20;99.90
52869;DHT22;39100;53.480;6.158;2023-02-03T06:29:54;8.20;99.90
52869;DHT22;39100;53.480;6.158;2023-02-03T06:32:20;8.20;99.90
52869;DHT22;39100;53.480;6.158;2023-02-03T06:34:45;8.20;99.90
52869;DHT22;39100;53.480;6.158;2023-02-03T06:37:11;8.20;99.90
52869;DHT22;39100;53.480;6.158;2023-02-03T06:39:36;8.10;99.90
52869;DHT22;39100;53.480;6.158;2023-02-03T06:42:02;8.00;99.90
52869;DHT22;39100;53.480;6.158;2023-02-03T06:44:28;8.00;99.90
52869;DHT22;39100;53.480;6.158;2023-02-03T06:46:53;8.00;99.90
52869;DHT22;39100;53.480;6.158;2023-02-03T06:49:20;7.90;99.90
52869;DHT22;39100;53.480;6.158;2023-02-03T06:51:46;7.90;99.90
52869;DHT22;39100;53.480;6.158;2023-02-03T06:54:12;7.90;99.90
52869;DHT22;39100;53.480;6.158;2023-02-03T06:56:38;7.90;99.90
52869;DHT22;39100;53.480;6.158;2023-02-03T06:59:05;7.90;99.90
52869;DHT22;39100;53.480;6.158;2023-02-03T07:01:30;7.90;99.90
52869;DHT22;39100;53.480;6.158;2023-02-03T07:03:56;7.80;99.90
52869;DHT22;39100;53.480;6.158;2023-02-03T07:06:26;7.80;99.90
52869;DHT22;39100;53.480;6.158;2023-02-03T07:08:54;7.80;99.90
52869;DHT22;39100;53.480;6.158;2023-02-03T07:11:20;7.80;99.90
52869;DHT22;39100;53.480;6.158;2023-02-03T07:13:46;7.90;99.90
52869;DHT22;39100;53.480;6.158;2023-02-03T07:16:11;7.90;99.90
52869;DHT22;39100;53.480;6.158;2023-02-03T07:18:37;7.90;99.90
52869;DHT22;39100;53.480;6.158;2023-02-03T07:21:04;7.90;99.90
52869;DHT22;39100;53.480;6.158;2023-02-03T07:23:29;7.90;99.90
52869;DHT22;39100;53.480;6.158;2023-02-03T07:25:58;8.00;99.90
52869;DHT22;39100;53.480;6.158;2023-02-03T07:28:24;7.90;99.90
52869;DHT22;39100;53.480;6.158;2023-02-03T07:30:49;7.90;99.90
52869;DHT22;39100;53.480;6.158;2023-02-03T07:33:16;7.90;99.90
52869;DHT22;39100;53.480;6.158;2023-02-03T07:35:42;8.00;99.90
52869;DHT22;39100;53.480;6.158;2023-02-03T07:38:07;8.00;99.90
52869;DHT22;39100;53.480;6.158;2023-02-03T07:40:33;8.00;99.90
52869;DHT22;39100;53.480;6.158;2023-02-03T07:42:58;8.10;99.90
52869;DHT22;39100;53.480;6.158;2023-02-03T07:45:24;8.10;99.90
52869;DHT22;39100;53.480;6.158;2023-02-03T07:47:50;8.20;99.90
52869;DHT22;39100;53.480;6.158;2023-02-03T07:50:16;8.30;99.90
52869;DHT22;39100;53.480;6.158;2023-02-03T07:52:42;8.40;99.90
52869;DHT22;39100;53.480;6.158;2023-02-03T07:55:08;8.40;99.90
52869;DHT22;39100;53.480;6.158;2023-02-03T07:57:33;8.50;99.90
52869;DHT22;39100;53.480;6.158;2023-02-03T07:59:59;8.50;99.90
52869;DHT22;39100;53.480;6.158;2023-02-03T08:02:25;8.50;99.90
52869;DHT22;39100;53.480;6.158;2023-02-03T08:04:50;8.50;99.90
52869;DHT22;39100;53.480;6.158;2023-02-03T08:07:16;8.60;99.90
52869;DHT22;39100;53.480;6.158;2023-02-03T08:09:41;8.60;99.90
52869;DHT22;39100;53.480;6.158;2023-02-03T08:12:07;8.50;99.90
52869;DHT22;39100;53.480;6.158;2023-02-03T08:14:32;8.60;99.90
52869;DHT22;39100;53.480;6.158;2023-02-03T08:16:58;8.60;99.90
52869;DHT22;39100;53.480;6.158;2023-02-03T08:19:23;8.50;99.90
52869;DHT22;39100;53.480;6.158;2023-02-03T08:21:49;8.50;99.90
52869;DHT22;39100;53.480;6.158;2023-02-03T08:24:14;8.60;99.90
52869;DHT22;39100;53.480;6.158;2023-02-03T08:26:40;8.80;99.90
52869;DHT22;39100;53.480;6.158;2023-02-03T08:29:06;8.80;99.90
52869;DHT22;39100;53.480;6.158;2023-02-03T08:31:32;8.80;99.90
52869;DHT22;39100;53.480;6.158;2023-02-03T08:33:58;8.80;99.90
52869;DHT22;39100;53.480;6.158;2023-02-03T08:36:24;8.80;99.90
52869;DHT22;39100;53.480;6.158;2023-02-03T08:38:49;8.80;99.90
52869;DHT22;39100;53.480;6.158;2023-02-03T08:41:16;8.80;99.90
52869;DHT22;39100;53.480;6.158;2023-02-03T08:43:43;8.80;99.90
52869;DHT22;39100;53.480;6.158;2023-02-03T08:46:10;8.80;99.90
52869;DHT22;39100;53.480;6.158;2023-02-03T08:48:36;8.80;99.90
52869;DHT22;39100;53.480;6.158;2023-02-03T08:51:02;8.70;99.90
52869;DHT22;39100;53.480;6.158;2023-02-03T08:53:33;8.70;99.90
52869;DHT22;39100;53.480;6.158;2023-02-03T08:55:59;8.80;99.90
52869;DHT22;39100;53.480;6.158;2023-02-03T08:58:28;8.80;99.90
52869;DHT22;39100;53.480;6.158;2023-02-03T09:00:53;8.80;99.90
52869;DHT22;39100;53.480;6.158;2023-02-03T09:03:19;8.80;99.90
52869;DHT22;39100;53.480;6.158;2023-02-03T09:05:45;8.80;99.90
52869;DHT22;39100;53.480;6.158;2023-02-03T09:08:11;8.80;99.90
52869;DHT22;39100;53.480;6.158;2023-02-03T09:10:36;8.80;99.90
52869;DHT22;39100;53.480;6.158;2023-02-03T09:13:02;8.90;99.90
52869;DHT22;39100;53.480;6.158;2023-02-03T09:15:27;8.90;99.90
52869;DHT22;39100;53.480;6.158;2023-02-03T09:17:53;8.90;99.90
52869;DHT22;39100;53.480;6.158;2023-02-03T09:20:20;9.00;99.90
52869;DHT22;39100;53.480;6.158;2023-02-03T09:22:47;9.00;99.90
52869;DHT22;39100;53.480;6.158;2023-02-03T09:25:13;9.00;99.90
52869;DHT22;39100;53.480;6.158;2023-02-03T09:27:40;9.70;99.90
52869;DHT22;39100;53.480;6.158;2023-02-03T09:30:06;9.00;99.90
52869;DHT22;39100;53.480;6.158;2023-02-03T09:32:32;9.00;99.90
52869;DHT22;39100;53.480;6.158;2023-02-03T09:34:58;9.00;99.90
52869;DHT22;39100;53.480;6.158;2023-02-03T09:37:23;9.00;99.90
52869;DHT22;39100;53.480;6.158;2023-02-03T09:39:49;9.00;99.90
52869;DHT22;39100;53.480;6.158;2023-02-03T09:42:42;9.00;99.90
52869;DHT22;39100;53.480;6.158;2023-02-03T09:45:26;9.10;99.90
52869;DHT22;39100;53.480;6.158;2023-02-03T09:47:53;9.10;99.90
52869;DHT22;39100;53.480;6.158;2023-02-03T09:50:24;9.20;99.90
52869;DHT22;39100;53.480;6.158;2023-02-03T09:52:51;9.20;99.90
52869;DHT22;39100;53.480;6.158;2023-02-03T09:58:18;9.30;99.90
52869;DHT22;39100;53.480;6.158;2023-02-03T10:00:56;9.40;99.90
52869;DHT22;39100;53.480;6.158;2023-02-03T10:10:55;9.60;99.90
52869;DHT22;39100;53.480;6.158;2023-02-03T10:16:58;9.50;99.90
52869;DHT22;39100;53.480;6.158;2023-02-03T10:19:39;9.60;99.90
52869;DHT22;39100;53.480;6.158;2023-02-03T10:22:09;9.60;99.90
52869;DHT22;39100;53.480;6.158;2023-02-03T10:24:42;9.70;99.90
52869;DHT22;39100;53.480;6.158;2023-02-03T10:27:22;9.80;99.90
52869;DHT22;39100;53.480;6.158;2023-02-03T10:30:21;9.80;99.90
52869;DHT22;39100;53.480;6.158;2023-02-03T10:32:59;9.80;99.90
52869;DHT22;39100;53.480;6.158;2023-02-03T10:35:40;9.90;99.90
52869;DHT22;39100;53.480;6.158;2023-02-03T10:38:15;10.00;99.90
52869;DHT22;39100;53.480;6.158;2023-02-03T10:40:43;10.10;99.90
52869;DHT22;39100;53.480;6.158;2023-02-03T10:43:09;10.20;99.90
52869;DHT22;39100;53.480;6.158;2023-02-03T10:45:54;10.30;99.90
52869;DHT22;39100;53.480;6.158;2023-02-03T10:48:20;10.50;99.90
52869;DHT22;39100;53.480;6.158;2023-02-03T10:50:47;10.70;99.90
52869;DHT22;39100;53.480;6.158;2023-02-03T10:55:43;10.60;99.90
52869;DHT22;39100;53.480;6.158;2023-02-03T10:58:15;10.60;99.90
52869;DHT22;39100;53.480;6.158;2023-02-03T11:00:42;10.60;99.90
52869;DHT22;39100;53.480;6.158;2023-02-03T11:03:24;10.80;99.90
52869;DHT22;39100;53.480;6.158;2023-02-03T11:08:35;11.00;99.90
52869;DHT22;39100;53.480;6.158;2023-02-03T11:11:04;12.30;99.90
52869;DHT22;39100;53.480;6.158;2023-02-03T11:13:30;10.90;99.90
52869;DHT22;39100;53.480;6.158;2023-02-03T11:15:57;11.00;99.90
52869;DHT22;39100;53.480;6.158;2023-02-03T11:20:58;10.90;99.90
52869;DHT22;39100;53.480;6.158;2023-02-03T11:23:24;10.90;99.90
52869;DHT22;39100;53.480;6.158;2023-02-03T11:25:50;10.90;99.90
52869;DHT22;39100;53.480;6.158;2023-02-03T11:28:16;11.20;99.90
52869;DHT22;39100;53.480;6.158;2023-02-03T11:30:42;10.90;99.90
52869;DHT22;39100;53.480;6.158;2023-02-03T11:33:17;10.90;99.90
52869;DHT22;39100;53.480;6.158;2023-02-03T11:35:58;10.90;99.90
52869;DHT22;39100;53.480;6.158;2023-02-03T11:38:34;10.90;99.90
52869;DHT22;39100;53.480;6.158;2023-02-03T11:41:04;11.70;99.90
52869;DHT22;39100;53.480;6.158;2023-02-03T11:43:30;11.00;99.90
52869;DHT22;39100;53.480;6.158;2023-02-03T11:46:05;11.10;99.90
52869;DHT22;39100;53.480;6.158;2023-02-03T11:48:57;11.20;99.90
52869;DHT22;39100;53.480;6.158;2023-02-03T11:51:44;11.40;99.90
52869;DHT22;39100;53.480;6.158;2023-02-03T11:54:46;11.50;99.90
52869;DHT22;39100;53.480;6.158;2023-02-03T11:57:42;11.50;99.90
52869;DHT22;39100;53.480;6.158;2023-02-03T12:00:18;11.60;99.90
52869;DHT22;39100;53.480;6.158;2023-02-03T12:03:25;11.70;99.90
52869;DHT22;39100;53.480;6.158;2023-02-03T12:14:12;12.60;99.90
52869;DHT22;39100;53.480;6.158;2023-02-03T12:22:45;12.00;99.90
52869;DHT22;39100;53.480;6.158;2023-02-03T12:25:43;11.60;99.90
52869;DHT22;39100;53.480;6.158;2023-02-03T12:31:03;11.30;99.90
52869;DHT22;39100;53.480;6.158;2023-02-03T12:33:42;11.10;99.90
52869;DHT22;39100;53.480;6.158;2023-02-03T12:36:21;11.00;99.90
52869;DHT22;39100;53.480;6.158;2023-02-03T12:38:56;10.80;99.90
52869;DHT22;39100;53.480;6.158;2023-02-03T12:41:40;10.70;99.90
52869;DHT22;39100;53.480;6.158;2023-02-03T12:44:36;10.50;99.90
52869;DHT22;39100;53.480;6.158;2023-02-03T12:50:12;10.50;99.90
52869;DHT22;39100;53.480;6.158;2023-02-03T12:52:43;10.80;99.90
52869;DHT22;39100;53.480;6.158;2023-02-03T12:55:38;10.20;99.90
52869;DHT22;39100;53.480;6.158;2023-02-03T12:58:09;10.10;99.90
52869;DHT22;39100;53.480;6.158;2023-02-03T13:03:25;9.90;99.90
52869;DHT22;39100;53.480;6.158;2023-02-03T13:06:23;9.90;99.90
52869;DHT22;39100;53.480;6.158;2023-02-03T13:09:05;9.90;99.90
52869;DHT22;39100;53.480;6.158;2023-02-03T13:11:42;9.80;99.90
52869;DHT22;39100;53.480;6.158;2023-02-03T13:17:22;9.70;99.90
52869;DHT22;39100;53.480;6.158;2023-02-03T13:20:02;9.50;99.90
52869;DHT22;39100;53.480;6.158;2023-02-03T13:22:28;9.40;99.90
52869;DHT22;39100;53.480;6.158;2023-02-03T13:41:55;9.10;99.90
52869;DHT22;39100;53.480;6.158;2023-02-03T13:44:31;9.10;99.90
52869;DHT22;39100;53.480;6.158;2023-02-03T13:46:58;9.10;99.90
52869;DHT22;39100;53.480;6.158;2023-02-03T13:49:27;9.00;99.90
52869;DHT22;39100;53.480;6.158;2023-02-03T13:51:54;9.00;99.90
52869;DHT22;39100;53.480;6.158;2023-02-03T13:56:59;9.00;99.90
52869;DHT22;39100;53.480;6.158;2023-02-03T13:59:43;9.00;99.90
52869;DHT22;39100;53.480;6.158;2023-02-03T14:07:37;9.30;99.90
52869;DHT22;39100;53.480;6.158;2023-02-03T14:20:49;9.00;99.90
52869;DHT22;39100;53.480;6.158;2023-02-03T14:23:33;9.00;99.90
52869;DHT22;39100;53.480;6.158;2023-02-03T14:26:02;9.10;99.90
52869;DHT22;39100;53.480;6.158;2023-02-03T14:28:37;9.00;99.90
52869;DHT22;39100;53.480;6.158;2023-02-03T14:31:20;9.10;99.90
52869;DHT22;39100;53.480;6.158;2023-02-03T14:33:54;9.10;99.90
52869;DHT22;39100;53.480;6.158;2023-02-03T14:48:19;9.00;99.90
52869;DHT22;39100;53.480;6.158;2023-02-03T14:53:40;8.90;99.90
52869;DHT22;39100;53.480;6.158;2023-02-03T14:58:59;8.70;99.90
52869;DHT22;39100;53.480;6.158;2023-02-03T15:06:49;8.60;99.90
52869;DHT22;39100;53.480;6.158;2023-02-03T15:09:25;8.60;99.90
52869;DHT22;39100;53.480;6.158;2023-02-03T15:11:52;8.60;99.90
52869;DHT22;39100;53.480;6.158;2023-02-03T15:14:19;8.50;99.90
52869;DHT22;39100;53.480;6.158;2023-02-03T15:16:49;8.50;99.90
52869;DHT22;39100;53.480;6.158;2023-02-03T15:19:19;8.50;99.90
52869;DHT22;39100;53.480;6.158;2023-02-03T15:21:46;8.40;99.90
52869;DHT22;39100;53.480;6.158;2023-02-03T15:24:15;8.40;99.90
52869;DHT22;39100;53.480;6.158;2023-02-03T15:26:48;8.30;99.90
52869;DHT22;39100;53.480;6.158;2023-02-03T15:29:37;8.30;99.90
52869;DHT22;39100;53.480;6.158;2023-02-03T15:32:49;8.30;99.90
52869;DHT22;39100;53.480;6.158;2023-02-03T15:35:12;8.30;99.90
52869;DHT22;39100;53.480;6.158;2023-02-03T15:37:46;8.20;99.90
52869;DHT22;39100;53.480;6.158;2023-02-03T15:40:17;8.20;99.90
52869;DHT22;39100;53.480;6.158;2023-02-03T15:43:00;8.20;99.90
52869;DHT22;39100;53.480;6.158;2023-02-03T15:45:32;8.10;99.90
52869;DHT22;39100;53.480;6.158;2023-02-03T15:48:22;8.10;99.90
52869;DHT22;39100;53.480;6.158;2023-02-03T15:51:37;8.10;99.90
52869;DHT22;39100;53.480;6.158;2023-02-03T15:59:04;8.10;99.90
52869;DHT22;39100;53.480;6.158;2023-02-03T16:01:30;8.10;99.90
52869;DHT22;39100;53.480;6.158;2023-02-03T16:03:57;8.10;99.90
52869;DHT22;39100;53.480;6.158;2023-02-03T16:06:32;8.00;99.90
52869;DHT22;39100;53.480;6.158;2023-02-03T16:09:04;8.00;99.90
52869;DHT22;39100;53.480;6.158;2023-02-03T16:11:38;7.90;99.90
52869;DHT22;39100;53.480;6.158;2023-02-03T16:14:06;7.90;99.90
52869;DHT22;39100;53.480;6.158;2023-02-03T16:16:58;7.90;99.90
52869;DHT22;39100;53.480;6.158;2023-02-03T16:19:26;7.80;99.90
52869;DHT22;39100;53.480;6.158;2023-02-03T16:21:57;7.80;99.90
52869;DHT22;39100;53.480;6.158;2023-02-03T16:24:42;7.70;99.90
52869;DHT22;39100;53.480;6.158;2023-02-03T16:29:52;7.70;99.90
52869;DHT22;39100;53.480;6.158;2023-02-03T16:32:36;7.70;99.90
52869;DHT22;39100;53.480;6.158;2023-02-03T16:35:20;7.70;99.90
52869;DHT22;39100;53.480;6.158;2023-02-03T16:38:06;7.70;99.90
52869;DHT22;39100;53.480;6.158;2023-02-03T16:40:51;7.70;99.90
52869;DHT22;39100;53.480;6.158;2023-02-03T16:43:35;7.70;99.90
52869;DHT22;39100;53.480;6.158;2023-02-03T16:46:19;7.80;99.90
52869;DHT22;39100;53.480;6.158;2023-02-03T16:49:03;7.80;99.90
52869;DHT22;39100;53.480;6.158;2023-02-03T16:51:47;7.80;99.90
52869;DHT22;39100;53.480;6.158;2023-02-03T16:54:13;7.90;99.90
52869;DHT22;39100;53.480;6.158;2023-02-03T16:56:39;7.90;99.90
52869;DHT22;39100;53.480;6.158;2023-02-03T16:59:05;7.90;99.90
52869;DHT22;39100;53.480;6.158;2023-02-03T17:01:31;7.90;99.90
52869;DHT22;39100;53.480;6.158;2023-02-03T17:03:57;7.90;99.90
52869;DHT22;39100;53.480;6.158;2023-02-03T17:06:22;7.90;99.90
52869;DHT22;39100;53.480;6.158;2023-02-03T17:08:48;7.90;99.90
52869;DHT22;39100;53.480;6.158;2023-02-03T17:11:17;7.90;99.90
52869;DHT22;39100;53.480;6.158;2023-02-03T17:13:44;7.90;99.90
52869;DHT22;39100;53.480;6.158;2023-02-03T17:16:19;7.90;99.90
52869;DHT22;39100;53.480;6.158;2023-02-03T17:18:45;7.90;99.90
52869;DHT22;39100;53.480;6.158;2023-02-03T17:21:17;7.90;99.90
52869;DHT22;39100;53.480;6.158;2023-02-03T17:23:43;7.90;99.90
52869;DHT22;39100;53.480;6.158;2023-02-03T17:26:08;7.90;99.90
52869;DHT22;39100;53.480;6.158;2023-02-03T17:28:34;7.90;99.90
52869;DHT22;39100;53.480;6.158;2023-02-03T17:31:04;7.90;99.90
52869;DHT22;39100;53.480;6.158;2023-02-03T17:33:31;8.00;99.90
52869;DHT22;39100;53.480;6.158;2023-02-03T17:38:36;8.00;99.90
52869;DHT22;39100;53.480;6.158;2023-02-03T17:41:16;8.00;99.90
52869;DHT22;39100;53.480;6.158;2023-02-03T17:43:43;8.00;99.90
52869;DHT22;39100;53.480;6.158;2023-02-03T17:46:10;8.00;99.90
52869;DHT22;39100;53.480;6.158;2023-02-03T17:48:36;7.90;99.90
52869;DHT22;39100;53.480;6.158;2023-02-03T17:51:13;7.90;99.90
52869;DHT22;39100;53.480;6.158;2023-02-03T17:53:40;7.90;99.90
52869;DHT22;39100;53.480;6.158;2023-02-03T17:56:11;7.90;99.90
52869;DHT22;39100;53.480;6.158;2023-02-03T17:58:37;7.90;99.90
52869;DHT22;39100;53.480;6.158;2023-02-03T18:01:07;7.90;99.90
52869;DHT22;39100;53.480;6.158;2023-02-03T18:03:33;7.90;99.90
52869;DHT22;39100;53.480;6.158;2023-02-03T18:05:59;7.90;99.90
52869;DHT22;39100;53.480;6.158;2023-02-03T18:08:27;7.90;99.90
52869;DHT22;39100;53.480;6.158;2023-02-03T18:10:53;7.90;99.90